Time;durP1;ratioP1;P1;durP2;ratioP2;P2;SDS_P1;SDS_P2;PMS_P1;PMS_P2;Temp;Humidity;BMP_temperature;BMP_pressure;BME280_temperature;BME280_humidity;BME280_pressure;Samples;Min_cycle;Max_cycle;Signal;HPM_P1;HPM_P2
2022/06/03 00:02:43;;;;;;;1.60;1.50;;;13.90;99.90;;;;;;5035778;28;20026;-60
2022/06/03 00:05:38;;;;;;;2.85;1.80;;;13.90;99.90;;;;;;5034469;28;20029;-60
2022/06/03 00:08:09;;;;;;;1.88;1.48;;;13.90;99.90;;;;;;5033980;28;20037;-60
2022/06/03 00:11:06;;;;;;;1.80;1.70;;;13.90;99.90;;;;;;5036044;28;20033;-60
2022/06/03 00:14:10;;;;;;;2.00;1.50;;;13.80;99.90;;;;;;5034171;28;20039;-60
2022/06/03 00:17:01;;;;;;;2.20;1.70;;;13.90;99.90;;;;;;5033942;28;20025;-60
2022/06/03 00:19:48;;;;;;;;;;;13.80;99.90;;;;;;5034798;28;20551;-60
2022/06/03 00:22:29;;;;;;;3.90;1.90;;;13.80;99.90;;;;;;5034091;28;19905;-60
2022/06/03 00:25:13;;;;;;;3.13;1.80;;;13.80;99.90;;;;;;5035363;28;20534;-60
2022/06/03 00:27:58;;;;;;;3.95;1.67;;;13.90;99.90;;;;;;5034635;28;20033;-60
2022/06/03 00:31:05;;;;;;;2.00;1.40;;;13.80;99.90;;;;;;5035217;28;20026;-59
2022/06/03 00:33:52;;;;;;;2.55;1.88;;;13.80;99.90;;;;;;5033912;28;20468;-60
2022/06/03 00:36:24;;;;;;;1.70;1.55;;;13.80;99.90;;;;;;5033933;28;20095;-60
2022/06/03 00:39:05;;;;;;;2.25;1.52;;;13.80;99.90;;;;;;5033851;28;20026;-60
2022/06/03 00:41:41;;;;;;;2.72;1.58;;;13.80;99.90;;;;;;5035559;28;20045;-60
2022/06/03 00:44:28;;;;;;;2.30;1.30;;;13.90;99.90;;;;;;5034621;28;20031;-60
2022/06/03 00:47:39;;;;;;;3.25;1.50;;;13.90;99.90;;;;;;5034872;28;20025;-60
2022/06/03 00:50:29;;;;;;;4.40;1.60;;;13.90;99.90;;;;;;5033177;28;20087;-60
2022/06/03 00:53:04;;;;;;;1.75;1.55;;;13.80;99.90;;;;;;5034902;28;20029;-60
2022/06/03 00:55:50;;;;;;;2.00;1.40;;;13.80;99.90;;;;;;5034658;28;20399;-59
2022/06/03 00:58:30;;;;;;;1.90;1.30;;;13.80;99.90;;;;;;5032957;28;20030;-57
2022/06/03 01:01:15;;;;;;;1.77;1.67;;;13.80;99.90;;;;;;5034697;28;20030;-58
2022/06/03 01:04:02;;;;;;;1.85;1.42;;;13.80;99.90;;;;;;5033392;28;20112;-60
2022/06/03 01:06:35;;;;;;;2.03;1.50;;;13.70;99.90;;;;;;5033098;28;20029;-60
2022/06/03 01:09:13;;;;;;;2.90;1.73;;;13.70;99.90;;;;;;5034395;28;20045;-59
2022/06/03 01:12:09;;;;;;;1.60;1.40;;;13.60;99.90;;;;;;5033676;28;20120;-60
2022/06/03 01:15:09;;;;;;;2.05;1.20;;;13.60;99.90;;;;;;5033095;28;20026;-60
2022/06/03 01:17:57;;;;;;;1.55;1.30;;;13.50;99.90;;;;;;5033832;28;20033;-58
2022/06/03 01:20:43;;;;;;;2.17;1.50;;;13.50;99.90;;;;;;5032861;28;20056;-58
2022/06/03 01:23:46;;;;;;;1.45;1.35;;;13.50;99.90;;;;;;5032368;28;20045;-60
2022/06/03 01:26:40;;;;;;;1.65;1.30;;;13.50;99.90;;;;;;5034160;28;20029;-59
2022/06/03 01:29:31;;;;;;;2.53;1.40;;;13.50;99.90;;;;;;5032156;28;20118;-60
2022/06/03 01:32:30;;;;;;;1.92;1.30;;;13.50;99.90;;;;;;5032835;28;20033;-60
2022/06/03 01:35:04;;;;;;;1.63;1.52;;;13.50;99.90;;;;;;5033838;28;20040;-60
2022/06/03 01:37:45;;;;;;;2.50;1.30;;;13.40;99.90;;;;;;5032453;28;20017;-60
2022/06/03 01:40:40;;;;;;;2.80;1.33;;;13.40;99.90;;;;;;5033393;28;20036;-58
2022/06/03 01:43:28;;;;;;;2.80;1.58;;;13.30;99.90;;;;;;5033964;28;20033;-58
2022/06/03 01:46:00;;;;;;;5.30;2.20;;;13.30;99.90;;;;;;5032500;28;20460;-57
2022/06/03 01:48:40;;;;;;;2.63;2.08;;;13.20;99.90;;;;;;5033057;28;20033;-59
2022/06/03 01:51:59;;;;;;;3.25;2.08;;;13.10;99.90;;;;;;5032770;28;20060;-60
2022/06/03 01:54:40;;;;;;;5.07;1.73;;;13.00;99.90;;;;;;5031718;28;20127;-60
2022/06/03 01:57:33;;;;;;;2.03;1.83;;;12.90;99.90;;;;;;5032830;28;20503;-60
2022/06/03 02:00:17;;;;;;;2.28;1.55;;;12.80;99.90;;;;;;5032392;28;20484;-57
2022/06/03 02:03:20;;;;;;;1.98;1.65;;;12.80;99.90;;;;;;5033521;28;20052;-60
2022/06/03 02:05:59;;;;;;;2.10;1.38;;;12.80;99.90;;;;;;5032393;28;20089;-60
2022/06/03 02:08:55;;;;;;;1.50;1.40;;;12.80;99.90;;;;;;5034049;28;20038;-60
2022/06/03 02:11:39;;;;;;;3.30;2.15;;;12.80;99.90;;;;;;5032680;28;20029;-60
2022/06/03 02:14:22;;;;;;;3.15;1.98;;;12.80;99.90;;;;;;5033240;28;20092;-60
2022/06/03 02:16:57;;;;;;;2.20;1.83;;;12.80;99.90;;;;;;5032132;28;20021;-60
2022/06/03 02:19:40;;;;;;;2.95;1.60;;;12.80;99.90;;;;;;5033247;28;20079;-60
2022/06/03 02:22:46;;;;;;;2.97;1.65;;;12.80;99.90;;;;;;5031956;28;20384;-60
2022/06/03 02:25:59;;;;;;;1.38;1.27;;;12.80;99.90;;;;;;5032413;28;20029;-60
2022/06/03 02:30:24;;;;;;;1.75;1.40;;;12.90;99.90;;;;;;5031462;28;20037;-60
2022/06/03 02:32:10;;;;;;;1.40;1.30;;;13.00;99.90;;;;;;5032875;28;20026;-60
2022/06/03 02:34:36;;;;;;;2.78;1.58;;;13.10;99.90;;;;;;5033274;28;20021;-60
2022/06/03 02:37:31;;;;;;;2.35;1.30;;;13.10;99.90;;;;;;5031736;28;20025;-60
2022/06/03 02:40:18;;;;;;;1.60;1.35;;;13.10;99.90;;;;;;5031577;28;20026;-60
2022/06/03 02:43:02;;;;;;;1.58;1.48;;;13.20;99.90;;;;;;5033057;28;20033;-60
2022/06/03 02:45:49;;;;;;;1.52;1.27;;;13.20;99.90;;;;;;5031589;28;20025;-60
2022/06/03 02:48:28;;;;;;;2.35;1.58;;;13.20;99.90;;;;;;5032860;28;20034;-60
2022/06/03 02:51:02;;;;;;;1.80;1.30;;;13.30;99.90;;;;;;5031597;28;20060;-60
2022/06/03 02:54:10;;;;;;;2.17;1.60;;;13.30;99.90;;;;;;5032860;28;20014;-60
2022/06/03 02:56:51;;;;;;;2.25;1.55;;;13.20;99.90;;;;;;5031781;28;20026;-58
2022/06/03 02:59:41;;;;;;;6.93;2.47;;;13.20;99.90;;;;;;5032396;28;20026;-60
2022/06/03 03:02:26;;;;;;;2.00;1.20;;;13.20;99.90;;;;;;5033123;28;20033;-60
2022/06/03 03:05:06;;;;;;;1.50;1.40;;;13.10;99.90;;;;;;5032936;28;20025;-60
2022/06/03 03:07:52;;;;;;;2.60;1.35;;;13.20;99.90;;;;;;5032645;28;20116;-60
2022/06/03 03:10:35;;;;;;;1.60;1.40;;;13.10;99.90;;;;;;5032579;28;20027;-60
2022/06/03 03:13:21;;;;;;;1.60;1.38;;;13.10;99.90;;;;;;5032883;28;20060;-61
2022/06/03 03:16:17;;;;;;;1.98;1.30;;;13.00;99.90;;;;;;5032851;28;20021;-60
2022/06/03 03:19:03;;;;;;;2.22;1.00;;;13.00;99.90;;;;;;5031641;28;20018;-59
2022/06/03 03:21:47;;;;;;;1.67;1.40;;;13.00;99.90;;;;;;5031400;28;20033;-58
2022/06/03 03:24:18;;;;;;;2.28;1.42;;;12.90;99.90;;;;;;5032390;28;20021;-60
2022/06/03 03:26:54;;;;;;;2.05;1.58;;;13.00;99.90;;;;;;5033843;28;20033;-60
2022/06/03 03:29:44;;;;;;;1.50;1.40;;;12.90;99.90;;;;;;5032796;28;20025;-58
2022/06/03 03:32:19;;;;;;;1.52;1.42;;;12.80;99.90;;;;;;5031245;28;20053;-57
2022/06/03 03:34:45;;;;;;;2.88;1.50;;;12.80;99.90;;;;;;5032904;28;20022;-59
2022/06/03 03:37:42;;;;;;;3.28;1.52;;;12.90;99.90;;;;;;5031154;28;20113;-57
2022/06/03 03:40:25;;;;;;;3.08;1.60;;;12.80;99.90;;;;;;5032687;28;20025;-60
2022/06/03 03:43:09;;;;;;;3.35;1.45;;;12.80;99.90;;;;;;5032292;28;20029;-60
2022/06/03 03:46:11;;;;;;;2.72;1.83;;;12.80;99.90;;;;;;5032608;28;20048;-60
2022/06/03 03:49:19;;;;;;;3.17;1.50;;;12.70;99.90;;;;;;5031838;28;20372;-59
2022/06/03 03:52:09;;;;;;;2.85;1.80;;;12.60;99.90;;;;;;5033650;28;20033;-60
2022/06/03 03:55:06;;;;;;;3.17;1.73;;;12.50;99.90;;;;;;5035058;28;20026;-60
2022/06/03 03:58:09;;;;;;;2.10;1.45;;;12.50;99.90;;;;;;5035903;28;20105;-57
2022/06/03 04:00:59;;;;;;;3.15;1.85;;;12.50;99.90;;;;;;5035964;28;20499;-58
2022/06/03 04:03:46;;;;;;;5.43;1.70;;;12.50;99.90;;;;;;5034486;28;20017;-60
2022/06/03 04:06:20;;;;;;;2.40;1.52;;;12.60;99.90;;;;;;5035585;28;20017;-58
2022/06/03 04:09:02;;;;;;;5.32;2.55;;;12.60;99.90;;;;;;5035908;28;20025;-60
2022/06/03 04:12:09;;;;;;;7.25;1.90;;;12.70;99.90;;;;;;5034475;28;20022;-60
2022/06/03 04:15:14;;;;;;;4.22;1.75;;;12.90;99.90;;;;;;5035458;28;20079;-60
2022/06/03 04:17:49;;;;;;;2.63;1.38;;;13.10;99.90;;;;;;5026718;28;20033;-58
2022/06/03 04:20:29;;;;;;;1.65;1.40;;;13.50;99.90;;;;;;5034220;28;20060;-59
2022/06/03 04:23:19;;;;;;;1.90;1.50;;;13.80;99.90;;;;;;5035385;28;20021;-60
2022/06/03 04:25:50;;;;;;;5.97;1.58;;;14.10;99.90;;;;;;5034128;28;20559;-60
2022/06/03 04:28:45;;;;;;;3.33;1.65;;;14.40;99.90;;;;;;5035501;28;20029;-60
2022/06/03 04:31:32;;;;;;;3.00;1.92;;;14.70;99.90;;;;;;5033989;28;20033;-61
2022/06/03 04:34:01;;;;;;;1.98;1.38;;;15.00;99.90;;;;;;5034862;28;20507;-59
2022/06/03 04:36:46;;;;;;;5.90;2.00;;;15.40;99.90;;;;;;5034564;28;20018;-58
2022/06/03 04:39:36;;;;;;;5.97;1.55;;;15.80;99.90;;;;;;5034258;28;20022;-59
2022/06/03 04:42:23;;;;;;;2.95;1.20;;;16.10;99.90;;;;;;5034603;28;20025;-60
2022/06/03 04:44:52;;;;;;;6.80;1.60;;;16.40;99.90;;;;;;5034388;28;20018;-60
2022/06/03 04:48:13;;;;;;;1.30;1.20;;;16.70;99.90;;;;;;5035416;28;20022;-60
2022/06/03 04:50:41;;;;;;;2.38;1.38;;;17.10;99.90;;;;;;5006528;28;20392;-59
2022/06/03 04:53:45;;;;;;;2.30;1.55;;;17.30;99.90;;;;;;5034076;28;20124;-61
2022/06/03 04:56:41;;;;;;;2.33;1.55;;;17.70;99.90;;;;;;5034476;28;20042;-61
2022/06/03 04:59:25;;;;;;;2.35;1.30;;;18.00;99.90;;;;;;5035518;28;20021;-60
2022/06/03 05:02:18;;;;;;;2.55;1.60;;;18.30;99.90;;;;;;5034153;28;20026;-60
2022/06/03 05:04:58;;;;;;;1.48;1.38;;;18.50;99.90;;;;;;5035031;28;20021;-60
2022/06/03 05:08:01;;;;;;;2.28;1.20;;;18.90;99.90;;;;;;5034730;28;20033;-59
2022/06/03 05:11:00;;;;;;;3.83;1.60;;;19.20;99.90;;;;;;5034451;28;20052;-60
2022/06/03 05:14:04;;;;;;;1.45;1.35;;;19.60;99.90;;;;;;5033858;28;20025;-59
2022/06/03 05:17:03;;;;;;;1.40;1.30;;;20.00;99.90;;;;;;5034965;28;20088;-60
2022/06/03 05:19:41;;;;;;;1.40;1.00;;;20.30;99.90;;;;;;5034937;28;20033;-61
2022/06/03 05:22:06;;;;;;;2.33;1.30;;;20.70;99.90;;;;;;5034793;28;20025;-61
2022/06/03 05:24:50;;;;;;;2.25;1.65;;;20.90;99.90;;;;;;5034896;28;20097;-60
2022/06/03 05:27:39;;;;;;;4.07;1.25;;;21.30;99.90;;;;;;5035264;28;20129;-61
2022/06/03 05:30:37;;;;;;;2.33;1.45;;;21.70;99.90;;;;;;5034714;28;20029;-61
2022/06/03 05:33:11;;;;;;;3.00;1.20;;;22.10;99.90;;;;;;5033253;28;20033;-63
2022/06/03 05:35:40;;;;;;;2.08;1.33;;;22.40;99.90;;;;;;5034558;28;20021;-63
2022/06/03 05:38:24;;;;;;;1.85;1.50;;;22.60;99.90;;;;;;5033284;28;20025;-64
2022/06/03 05:42:23;;;;;;;1.67;1.00;;;22.90;99.50;;;;;;5034455;28;20100;-64
2022/06/03 05:44:19;;;;;;;3.10;1.20;;;23.00;99.90;;;;;;5034169;28;20053;-64
2022/06/03 05:47:20;;;;;;;2.95;1.38;;;23.30;97.80;;;;;;5034330;28;20097;-64
2022/06/03 05:50:04;;;;;;;3.22;1.10;;;23.60;97.20;;;;;;5032440;28;20124;-62
2022/06/03 05:53:03;;;;;;;1.00;1.00;;;24.00;96.70;;;;;;5033246;28;20045;-63
2022/06/03 05:55:53;;;;;;;2.90;1.20;;;24.40;96.90;;;;;;5032798;28;20053;-59
2022/06/03 05:58:41;;;;;;;3.10;1.13;;;25.10;95.30;;;;;;5034110;28;20036;-60
2022/06/03 06:01:23;;;;;;;2.85;1.30;;;25.60;93.70;;;;;;5034069;28;20026;-59
2022/06/03 06:03:55;;;;;;;1.45;1.10;;;25.90;93.70;;;;;;5032821;28;20079;-60
2022/06/03 06:06:28;;;;;;;2.47;1.45;;;26.20;91.90;;;;;;5032841;28;20079;-60
2022/06/03 06:09:24;;;;;;;3.63;1.48;;;26.60;89.90;;;;;;5032691;28;20080;-60
2022/06/03 06:11:58;;;;;;;2.28;1.00;;;26.70;87.80;;;;;;5032605;28;20021;-60
2022/06/03 06:14:24;;;;;;;3.20;1.08;;;26.90;90.60;;;;;;5032293;28;20021;-60
2022/06/03 06:16:52;;;;;;;1.00;1.00;;;26.90;86.40;;;;;;5033763;28;20097;-61
2022/06/03 06:19:41;;;;;;;1.48;1.17;;;26.80;85.50;;;;;;5033870;28;20388;-60
2022/06/03 06:22:34;;;;;;;4.10;1.48;;;26.40;83.60;;;;;;5033333;28;20093;-57
2022/06/03 06:25:14;;;;;;;3.70;1.30;;;25.30;83.20;;;;;;5033548;28;20025;-59
2022/06/03 06:28:04;;;;;;;1.88;1.58;;;25.10;85.50;;;;;;5032697;28;20036;-57
2022/06/03 06:30:56;;;;;;;2.35;0.93;;;24.60;86.10;;;;;;5032994;28;20045;-61
2022/06/03 06:33:27;;;;;;;1.55;1.40;;;25.20;89.90;;;;;;5032316;28;20032;-60
2022/06/03 06:39:22;;;;;;;1.85;1.10;;;27.00;83.40;;;;;;5033729;28;20071;-62
2022/06/03 06:42:06;;;;;;;3.10;1.25;;;27.50;81.40;;;;;;5033516;28;20018;-62
2022/06/03 06:44:37;;;;;;;7.13;1.45;;;28.00;80.50;;;;;;5033608;28;20068;-62
2022/06/03 06:47:05;;;;;;;;;;;28.50;79.00;;;;;;5032609;28;20116;-62
2022/06/03 06:49:38;;;;;;;3.25;1.30;;;28.80;77.80;;;;;;5033563;28;19976;-61
2022/06/03 06:52:04;;;;;;;5.82;2.10;;;29.20;75.30;;;;;;5033903;28;20059;-60
2022/06/03 06:54:54;;;;;;;8.48;1.52;;;28.60;75.40;;;;;;5032029;28;20029;-60
2022/06/03 06:57:36;;;;;;;3.45;1.10;;;28.80;75.40;;;;;;5032443;28;20029;-62
2022/06/03 07:00:27;;;;;;;5.13;1.30;;;29.90;76.10;;;;;;5032081;28;20030;-58
2022/06/03 07:02:52;;;;;;;;;;;30.40;70.30;;;;;;5029465;28;20034;-63
2022/06/03 07:05:52;;;;;;;4.53;1.45;;;30.70;69.40;;;;;;5031885;28;20019;-62
2022/06/03 07:08:20;;;;;;;2.30;1.17;;;30.70;68.90;;;;;;5031371;28;20046;-62
2022/06/03 07:11:25;;;;;;;4.78;1.15;;;31.20;69.60;;;;;;5033117;28;20047;-62
2022/06/03 07:14:03;;;;;;;2.05;1.17;;;32.40;68.20;;;;;;5014738;28;20056;-62
2022/06/03 07:19:48;;;;;;;10.10;1.40;;;33.60;63.60;;;;;;5033093;28;20136;-63
2022/06/03 07:22:27;;;;;;;;;;;33.40;62.50;;;;;;5032227;28;20108;-61
2022/06/03 07:25:16;;;;;;;2.92;1.30;;;33.00;61.50;;;;;;5032119;28;19931;-59
2022/06/03 07:28:03;;;;;;;3.15;1.40;;;32.10;61.80;;;;;;5037196;28;20025;-55
2022/06/03 07:30:40;;;;;;;8.15;1.45;;;31.40;62.00;;;;;;5037143;28;20028;-60
2022/06/03 07:33:38;;;;;;;2.47;1.42;;;31.00;62.50;;;;;;5036947;28;20017;-62
2022/06/03 07:36:15;;;;;;;3.78;1.27;;;30.60;62.60;;;;;;5037413;28;20029;-61
2022/06/03 07:38:48;;;;;;;5.25;1.50;;;30.10;62.60;;;;;;5035860;28;20032;-59
2022/06/03 07:41:33;;;;;;;3.13;1.10;;;30.40;63.80;;;;;;5036669;28;20029;-60
2022/06/03 07:44:02;;;;;;;5.65;1.55;;;30.30;64.10;;;;;;5035551;28;20107;-60
2022/06/03 07:46:52;;;;;;;1.85;1.00;;;30.80;63.70;;;;;;5035996;28;20018;-60
2022/06/03 07:49:21;;;;;;;9.88;1.50;;;31.10;61.70;;;;;;5035332;28;20045;-61
2022/06/03 07:51:54;;;;;;;5.57;1.10;;;31.50;60.70;;;;;;5036538;28;20036;-60
2022/06/03 07:54:35;;;;;;;6.70;1.40;;;32.10;60.90;;;;;;5035546;28;20029;-61
2022/06/03 07:57:05;;;;;;;11.93;1.92;;;31.90;60.30;;;;;;5036655;28;20032;-62
2022/06/03 07:59:34;;;;;;;4.90;1.10;;;31.90;60.70;;;;;;5035077;28;20029;-62
2022/06/03 08:02:05;;;;;;;16.50;2.03;;;33.40;58.90;;;;;;5035915;28;20040;-61
2022/06/03 08:04:36;;;;;;;6.07;1.95;;;33.50;59.60;;;;;;5034948;28;20018;-62
2022/06/03 08:12:36;;;;;;;7.85;1.50;;;35.20;56.00;;;;;;5036449;28;20499;-62
2022/06/03 08:15:21;;;;;;;2.88;1.40;;;35.10;56.90;;;;;;5034756;28;20483;-62
2022/06/03 08:17:50;;;;;;;1.40;1.30;;;34.10;57.10;;;;;;5035335;28;20024;-62
2022/06/03 08:20:18;;;;;;;1.58;1.13;;;35.30;56.70;;;;;;5036152;28;20017;-62
2022/06/03 08:22:45;;;;;;;1.42;1.13;;;36.00;53.90;;;;;;5035926;28;20064;-61
2022/06/03 08:25:17;;;;;;;3.15;1.17;;;35.30;55.20;;;;;;5034887;28;20026;-60
2022/06/03 08:27:44;;;;;;;1.60;1.23;;;34.60;55.20;;;;;;5035925;28;20026;-62
2022/06/03 08:30:23;;;;;;;2.40;1.00;;;34.30;55.50;;;;;;5036136;28;20026;-62
2022/06/03 08:33:06;;;;;;;3.38;0.90;;;34.50;56.40;;;;;;5034973;28;20044;-61
2022/06/03 08:35:36;;;;;;;6.55;1.40;;;35.40;54.90;;;;;;5034910;28;20061;-63
2022/06/03 08:38:19;;;;;;;1.77;1.40;;;37.30;54.10;;;;;;5035648;28;20095;-62
2022/06/03 08:41:22;;;;;;;2.42;1.35;;;37.90;53.10;;;;;;5035531;28;20033;-62
2022/06/03 08:44:15;;;;;;;3.30;1.25;;;37.90;52.20;;;;;;5035835;28;20029;-62
2022/06/03 08:46:49;;;;;;;1.13;1.02;;;36.40;52.00;;;;;;5035563;28;20029;-62
2022/06/03 08:49:20;;;;;;;3.30;1.40;;;36.90;53.30;;;;;;5034076;28;20025;-62
2022/06/03 08:52:03;;;;;;;6.10;1.25;;;36.40;53.00;;;;;;5035449;28;20060;-62
2022/06/03 08:54:37;;;;;;;2.00;1.13;;;35.90;52.60;;;;;;5034920;28;20075;-62
2022/06/03 08:57:13;;;;;;;5.03;1.20;;;35.90;54.10;;;;;;5035640;28;20033;-60
2022/06/03 08:59:42;;;;;;;6.85;1.73;;;36.50;53.70;;;;;;5034008;28;20476;-61
2022/06/03 09:02:14;;;;;;;3.40;0.97;;;37.40;53.30;;;;;;5034237;28;20030;-62
2022/06/03 09:05:08;;;;;;;1.23;1.13;;;37.40;53.00;;;;;;5033895;28;20264;-60
2022/06/03 09:07:50;;;;;;;1.67;0.95;;;37.00;52.10;;;;;;5035114;28;20033;-62
2022/06/03 09:10:22;;;;;;;3.42;1.40;;;36.20;51.90;;;;;;5033843;28;20021;-60
2022/06/03 09:13:03;;;;;;;2.08;1.30;;;35.80;53.10;;;;;;5033812;28;20044;-60
2022/06/03 09:15:35;;;;;;;2.00;1.52;;;34.90;51.60;;;;;;5034944;28;20048;-60
2022/06/03 09:18:25;;;;;;;2.05;1.50;;;35.50;53.30;;;;;;5035014;28;20024;-60
2022/06/03 09:21:06;;;;;;;2.15;1.48;;;34.20;53.30;;;;;;5034072;28;20036;-60
2022/06/03 09:23:45;;;;;;;2.58;1.20;;;33.90;54.90;;;;;;5034864;28;20029;-61
2022/06/03 09:26:42;;;;;;;4.05;1.30;;;34.30;55.40;;;;;;5034760;28;20036;-61
2022/06/03 09:32:24;;;;;;;1.70;1.38;;;34.60;52.90;;;;;;5034906;28;20021;-61
2022/06/03 09:34:55;;;;;;;2.80;1.25;;;33.80;53.20;;;;;;5033790;28;20030;-62
2022/06/03 09:37:34;;;;;;;5.00;1.35;;;33.40;53.60;;;;;;5034577;28;20026;-61
2022/06/03 09:40:03;;;;;;;2.50;1.60;;;33.80;53.70;;;;;;5034549;28;20034;-60
2022/06/03 09:42:31;;;;;;;1.35;1.20;;;34.70;52.80;;;;;;5033135;28;20025;-60
2022/06/03 09:45:02;;;;;;;1.40;1.30;;;34.70;52.90;;;;;;5033413;28;20032;-59
2022/06/03 09:47:29;;;;;;;2.67;1.38;;;35.00;52.10;;;;;;5034114;28;20107;-59
2022/06/03 09:49:55;;;;;;;3.63;1.70;;;34.90;52.60;;;;;;5033728;28;20100;-60
2022/06/03 09:52:24;;;;;;;1.27;1.17;;;34.20;53.00;;;;;;5034221;28;20021;-60
2022/06/03 09:54:50;;;;;;;2.38;1.17;;;34.30;54.50;;;;;;5032940;28;20025;-59
2022/06/03 09:57:33;;;;;;;7.20;1.50;;;35.80;52.60;;;;;;5034074;28;20530;-61
2022/06/03 10:00:12;;;;;;;1.85;1.10;;;36.00;51.60;;;;;;5034149;28;20026;-57
2022/06/03 10:02:38;;;;;;;3.53;1.60;;;35.20;52.30;;;;;;5034141;28;20507;-59
2022/06/03 10:05:06;;;;;;;1.80;1.55;;;35.20;53.00;;;;;;5033965;28;20022;-59
2022/06/03 10:07:33;;;;;;;2.95;1.67;;;35.40;52.80;;;;;;5034399;28;20032;-58
2022/06/03 10:12:59;;;;;;;7.07;1.50;;;35.00;52.80;;;;;;5033769;28;20024;-64
2022/06/03 10:15:40;;;;;;;1.50;1.40;;;35.80;53.60;;;;;;5033731;28;20024;-63
2022/06/03 10:18:11;;;;;;;3.38;1.50;;;37.10;51.70;;;;;;5034170;28;20022;-61
2022/06/03 10:20:37;;;;;;;2.72;1.20;;;37.20;51.70;;;;;;5032536;28;20037;-61
2022/06/03 10:23:10;;;;;;;1.75;1.33;;;37.90;50.90;;;;;;5032528;28;20029;-59
2022/06/03 10:25:38;;;;;;;3.03;1.63;;;35.80;52.90;;;;;;5033187;28;20025;-63
2022/06/03 10:28:09;;;;;;;1.83;1.42;;;34.90;53.50;;;;;;5032444;28;20388;-61
2022/06/03 10:30:39;;;;;;;3.33;1.55;;;32.60;56.30;;;;;;5033845;28;20025;-61
2022/06/03 10:33:06;;;;;;;;;;;32.20;57.60;;;;;;5032890;28;20039;-59
2022/06/03 10:35:38;;;;;;;1.63;1.50;;;32.20;57.10;;;;;;5033535;28;19955;-60
2022/06/03 10:38:04;;;;;;;4.25;1.60;;;31.40;58.30;;;;;;5033138;28;20037;-62
2022/06/03 10:40:31;;;;;;;1.92;1.65;;;30.50;59.70;;;;;;5032405;28;20025;-60
2022/06/03 10:43:01;;;;;;;1.60;1.48;;;29.70;61.20;;;;;;5032284;28;20029;-60
2022/06/03 10:45:38;;;;;;;2.25;1.40;;;30.50;62.80;;;;;;5033654;28;20484;-61
2022/06/03 10:48:39;;;;;;;1.50;1.40;;;30.40;61.60;;;;;;5033487;28;20021;-61
2022/06/03 11:02:30;;;;;;;5.18;1.92;;;29.40;64.30;;;;;;5037551;28;20106;-60
2022/06/03 11:05:21;;;;;;;2.55;1.23;;;28.80;65.40;;;;;;5036751;28;20033;-62
2022/06/03 11:07:57;;;;;;;2.78;1.55;;;28.50;67.90;;;;;;5041360;28;20116;-58
2022/06/03 11:10:29;;;;;;;2.45;1.30;;;28.20;68.00;;;;;;5037184;28;20416;-59
2022/06/03 11:13:24;;;;;;;1.63;1.52;;;28.00;68.70;;;;;;5039783;28;20044;-62
2022/06/03 11:15:50;;;;;;;4.95;1.80;;;27.70;69.80;;;;;;5056414;28;20024;-54
2022/06/03 11:18:18;;;;;;;1.70;1.60;;;27.70;69.50;;;;;;5055777;28;20383;-58
2022/06/03 11:20:47;;;;;;;2.03;1.83;;;27.40;69.50;;;;;;5055664;28;20036;-59
2022/06/03 11:23:14;;;;;;;1.60;1.50;;;27.30;70.50;;;;;;5057088;28;20025;-60
2022/06/03 11:25:46;;;;;;;2.58;1.80;;;27.30;71.00;;;;;;5056886;28;20029;-60
2022/06/03 11:28:14;;;;;;;2.20;2.00;;;27.10;70.50;;;;;;5056771;28;20028;-60
2022/06/03 11:30:43;;;;;;;1.77;1.67;;;27.20;70.60;;;;;;5056919;28;20031;-61
2022/06/03 11:33:32;;;;;;;4.10;1.50;;;27.10;73.00;;;;;;5056846;28;20045;-60
2022/06/03 11:36:04;;;;;;;2.58;2.05;;;27.40;72.30;;;;;;5046003;28;20503;-61
2022/06/03 11:38:36;;;;;;;3.47;1.60;;;27.50;71.30;;;;;;5057035;28;20025;-61
2022/06/03 11:41:07;;;;;;;2.03;1.67;;;27.50;71.20;;;;;;5055981;28;20029;-60
2022/06/03 11:43:38;;;;;;;;;;;27.60;71.30;;;;;;5056759;28;20028;-60
2022/06/03 11:46:27;;;;;;;1.98;1.60;;;27.70;70.60;;;;;;5055273;28;20013;-61
2022/06/03 11:48:54;;;;;;;2.85;1.80;;;27.30;72.40;;;;;;5056577;28;20032;-59
2022/06/03 11:51:20;;;;;;;3.65;1.60;;;27.40;71.70;;;;;;5055220;28;20021;-61
2022/06/03 11:53:48;;;;;;;1.70;1.60;;;27.50;73.20;;;;;;5055214;28;20027;-58
2022/06/03 11:56:18;;;;;;;1.80;1.70;;;27.50;72.70;;;;;;5056313;28;20017;-57
2022/06/03 11:58:59;;;;;;;3.05;1.75;;;27.50;72.60;;;;;;5055968;28;20032;-59
2022/06/03 12:01:48;;;;;;;3.10;1.55;;;27.40;72.90;;;;;;5056323;28;20033;-59
2022/06/03 12:04:36;;;;;;;2.30;2.10;;;27.50;73.40;;;;;;5056337;28;20025;-59
2022/06/03 12:07:21;;;;;;;2.80;1.85;;;27.60;73.10;;;;;;5056295;28;20112;-59
2022/06/03 12:10:16;;;;;;;5.30;2.25;;;28.10;72.40;;;;;;5055312;28;20032;-59
2022/06/03 12:13:17;;;;;;;2.60;1.85;;;28.50;72.20;;;;;;5054494;28;20510;-57
2022/06/03 12:15:56;;;;;;;3.00;2.10;;;28.30;72.80;;;;;;5055114;28;20028;-59
2022/06/03 12:18:39;;;;;;;7.07;1.70;;;28.00;71.80;;;;;;5054762;28;20025;-59
2022/06/03 12:21:09;;;;;;;4.78;2.20;;;27.80;73.10;;;;;;5054741;28;20036;-59
2022/06/03 12:23:38;;;;;;;4.82;1.92;;;27.80;73.00;;;;;;5054710;28;20056;-59
2022/06/03 12:26:09;;;;;;;12.05;3.28;;;27.50;74.70;;;;;;5054858;28;20567;-57
2022/06/03 12:28:37;;;;;;;;;;;27.20;75.80;;;;;;5054936;28;20392;-59
2022/06/03 12:31:12;;;;;;;3.58;1.88;;;27.10;75.40;;;;;;5054532;28;19909;-59
2022/06/03 12:33:56;;;;;;;2.03;1.70;;;26.90;75.20;;;;;;5055698;28;20024;-59
2022/06/03 12:36:52;;;;;;;2.85;2.17;;;27.20;75.10;;;;;;5054701;28;20104;-59
2022/06/03 12:39:54;;;;;;;2.45;1.80;;;27.40;75.40;;;;;;5055620;28;20048;-59
2022/06/03 12:42:28;;;;;;;2.15;1.70;;;27.30;75.40;;;;;;5056039;28;20489;-55
2022/06/03 12:44:57;;;;;;;2.15;1.90;;;27.10;76.60;;;;;;5054190;28;20111;-58
2022/06/03 12:47:31;;;;;;;2.95;1.88;;;27.40;76.10;;;;;;5054461;28;20017;-59
2022/06/03 12:50:03;;;;;;;3.17;2.15;;;27.70;75.10;;;;;;5055592;28;20086;-59
2022/06/03 12:52:29;;;;;;;7.22;2.50;;;27.60;75.40;;;;;;5054254;28;20049;-59
2022/06/03 12:55:02;;;;;;;4.30;2.28;;;27.50;75.80;;;;;;5055379;28;20098;-58
2022/06/03 12:57:56;;;;;;;2.63;1.80;;;27.50;76.50;;;;;;5055287;28;20021;-59
2022/06/03 13:00:32;;;;;;;2.72;2.03;;;27.50;76.60;;;;;;5052668;28;20033;-59
2022/06/03 13:03:13;;;;;;;2.70;2.17;;;27.60;77.20;;;;;;5055594;28;20024;-56
2022/06/03 13:05:48;;;;;;;3.15;1.98;;;27.80;77.50;;;;;;5053830;28;20024;-58
2022/06/03 13:08:28;;;;;;;6.65;2.17;;;27.80;76.10;;;;;;5055078;28;20033;-58
2022/06/03 13:11:26;;;;;;;2.83;1.70;;;27.90;76.40;;;;;;5054937;28;20035;-58
2022/06/03 13:13:58;;;;;;;2.95;1.88;;;28.30;75.80;;;;;;5053692;28;20037;-56
2022/06/03 13:16:29;;;;;;;2.20;2.00;;;28.60;75.60;;;;;;5053570;28;20025;-59
2022/06/03 13:18:57;;;;;;;4.60;2.20;;;28.50;75.80;;;;;;5054808;28;20021;-58
2022/06/03 13:21:57;;;;;;;6.10;1.83;;;28.00;75.90;;;;;;5054776;28;20025;-59
2022/06/03 13:24:28;;;;;;;1.88;1.77;;;28.00;77.00;;;;;;5053864;28;20052;-59
2022/06/03 13:27:41;;;;;;;3.38;2.00;;;28.30;74.60;;;;;;5053531;28;20369;-59
2022/06/03 13:30:14;;;;;;;2.28;1.85;;;28.50;76.10;;;;;;5048613;28;20136;-59
2022/06/03 13:32:41;;;;;;;2.65;1.83;;;28.80;74.70;;;;;;5054232;28;20021;-59
2022/06/03 13:35:15;;;;;;;4.40;1.90;;;29.00;75.00;;;;;;5054745;28;20021;-58
2022/06/03 13:38:00;;;;;;;5.97;2.10;;;29.20;77.80;;;;;;5053352;28;20029;-57
2022/06/03 13:40:37;;;;;;;3.15;2.10;;;28.80;74.70;;;;;;5054443;28;20025;-59
2022/06/03 13:43:28;;;;;;;5.20;1.77;;;28.50;77.60;;;;;;5054278;28;20083;-59
2022/06/03 13:46:03;;;;;;;3.85;1.80;;;28.30;75.20;;;;;;5054294;28;20056;-59
2022/06/03 13:48:55;;;;;;;2.30;2.10;;;28.20;77.90;;;;;;5054371;28;20108;-58
2022/06/03 13:52:16;;;;;;;2.60;1.95;;;28.30;77.80;;;;;;5052999;28;20116;-59
2022/06/03 13:54:53;;;;;;;;;;;28.40;77.20;;;;;;5036009;28;20095;-58
2022/06/03 13:57:44;;;;;;;10.32;2.22;;;28.30;77.40;;;;;;5053146;28;19904;-54
2022/06/03 14:00:25;;;;;;;2.50;1.90;;;28.10;77.30;;;;;;5052759;28;20032;-55
2022/06/03 14:03:07;;;;;;;2.17;1.60;;;28.20;76.90;;;;;;5053788;28;20025;-60
2022/06/03 14:05:58;;;;;;;3.67;1.95;;;28.30;77.60;;;;;;5054242;28;20030;-60
2022/06/03 14:08:50;;;;;;;3.08;2.08;;;28.30;80.10;;;;;;5053774;28;20065;-63
2022/06/03 14:11:52;;;;;;;3.40;1.80;;;28.40;79.70;;;;;;5053781;28;20060;-60
2022/06/03 14:14:40;;;;;;;2.95;1.80;;;28.50;78.40;;;;;;5052779;28;20048;-60
2022/06/03 14:17:34;;;;;;;3.05;1.80;;;28.60;78.90;;;;;;5053533;28;20048;-61
2022/06/03 14:20:37;;;;;;;5.65;1.98;;;28.70;78.50;;;;;;5054074;28;20025;-62
2022/06/03 14:23:32;;;;;;;2.70;2.15;;;28.70;80.30;;;;;;5035412;28;20044;-61
2022/06/03 14:26:17;;;;;;;3.67;2.50;;;28.70;78.90;;;;;;5053214;28;20086;-61
2022/06/03 14:29:04;;;;;;;7.38;2.42;;;28.50;78.10;;;;;;5053562;28;20032;-59
2022/06/03 14:31:42;;;;;;;3.10;1.88;;;28.70;80.20;;;;;;5053545;28;20052;-62
2022/06/03 14:34:47;;;;;;;3.13;1.95;;;28.70;78.30;;;;;;5052322;28;20480;-61
2022/06/03 14:37:25;;;;;;;2.53;2.28;;;28.50;77.50;;;;;;5052181;28;20021;-61